Mikado, MI (48745)

7:32 PM EST on January 31, 2015 (GMT -0500)
RAWS BARTON CITY MI US | Change Station
CLOSE
Current Station
Personal Weather Station
Location: Barton City, MI
Elevation: 833 ft
Nearby Weather Stations

Elev 833 ft 44.66 °N, 83.59 °W | Updated 46 minutes ago

Overcast
Overcast
25 °F
Feels Like 20 °F
N
4
Wind Variable Wind from WNW
Gusts 12.0 mph

Today
High -- | Low -- °F
--% Chance of Precip.
Yesterday
High -- | Low -- °F
Precip. -- in
7:53 AM 5:41 PM
Waxing Gibbous, 92% visible
Pressure 30.18 in
Visibility 10.0 miles
Clouds Mostly Cloudy 2500 ft
Overcast 3000 ft
Windchill 20 °F
Dew Point 16 °F
Humidity 69%
Rainfall 0.00 in
Snow Depth Not available.
UV 0 out of 12
Pollen .10 out of 12
Air Quality Not available.
Flu Activity Not available.
METAR KOSC 010013Z AUTO 29006KT 10SM BKN025 OVC030 M02/M07 A3018 RMK AO2 T10291070

More Conditions Fewer Conditions

Pressure 30.18 in
Visibility 10.0 miles
Clouds Mostly Cloudy 2500 ft
Overcast 3000 ft
Windchill 20 °F
Dew Point 16 °F
Humidity 69%
Rainfall 0.00 in
Snow Depth Not available.
UV 0 out of 12
Pollen .10 out of 12
Air Quality Not available.
Flu Activity Not available.
METAR KOSC 010013Z AUTO 29006KT 10SM BKN025 OVC030 M02/M07 A3018 RMK AO2 T10291070

More Conditions Fewer Conditions

Nowcast | as of 7:00 PM EST on January 31, 2015

At 8 PM...mostly cloudy. Slight chance of snow showers. Temperature 22. Northwest winds 7 mph. At 10 PM...mostly cloudy. Temperature 19. North winds 13 mph. At 12 am...mostly cloudy. Temperature 17. North winds 11 mph. At 2 am...mostly cloudy. Temperature 15. North winds 13 mph.

×

10-Day Weather Forecast

Almanac

Astronomy

Jan. 31, 2015 Rise Set
Actual Time
Civil Twilight
Nautical Twilight
Astronomical Twilight
Moon
Length of Visible Light
Length of Day
Tomorrow will be .
, % of the Moon is Illuminated

Today's Extremes

State Highs State Lows

Community

WunderPhotos

Upload Photos

1,792,262 photos uploaded!

WunderBlogs® & News

Nearby

Air Quality

  Air Quality AQ Index Pollutant
Not available.

Snow Depth

Station Depth Elevation

Earthquake Activity

City Distance Mag. Time & Date
Minimum magnitude displayed is 2.5.

Coastal Water Temperatures

Place Temperature

Nearby Weather Stations